createdAt,value
2019-03-24T00:02:03.776Z,0.50
2019-03-24T00:04:32.926Z,0.40
2019-03-24T00:07:02.108Z,0.43
2019-03-24T00:09:31.246Z,0.40
2019-03-24T00:12:00.403Z,0.53
2019-03-24T00:14:29.564Z,0.50
2019-03-24T00:16:59.009Z,0.30
2019-03-24T00:19:28.051Z,0.40
2019-03-24T00:21:57.262Z,0.43
2019-03-24T00:24:26.310Z,0.30
2019-03-24T00:26:55.366Z,0.50
2019-03-24T00:29:24.499Z,0.30
2019-03-24T00:31:53.626Z,0.43
2019-03-24T00:34:22.741Z,0.40
2019-03-24T00:36:51.879Z,0.40
2019-03-24T00:39:20.930Z,0.50
2019-03-24T00:41:49.991Z,0.57
2019-03-24T00:44:19.303Z,0.33
2019-03-24T00:46:48.408Z,0.50
2019-03-24T00:49:17.544Z,0.30
2019-03-24T00:51:46.670Z,0.50
2019-03-24T00:54:15.730Z,0.40
2019-03-24T00:56:44.767Z,0.43
2019-03-24T00:59:13.996Z,0.40
2019-03-24T01:01:43.102Z,0.40
2019-03-24T01:04:12.311Z,0.40
2019-03-24T01:06:41.362Z,0.40
2019-03-24T01:09:10.890Z,0.50
2019-03-24T01:11:40.022Z,0.40
2019-03-24T01:14:09.071Z,0.50
2019-03-24T01:16:38.216Z,0.53
2019-03-24T01:19:07.333Z,0.40
2019-03-24T01:21:36.453Z,0.40
2019-03-24T01:24:06.237Z,0.40
2019-03-24T01:26:35.370Z,0.40
2019-03-24T01:29:04.391Z,0.57
2019-03-24T01:31:33.514Z,0.40
2019-03-24T01:34:02.627Z,0.40
2019-03-24T01:36:31.931Z,0.20
2019-03-24T01:39:01.054Z,0.50
2019-03-24T01:41:30.114Z,0.30
2019-03-24T01:43:59.499Z,0.40
2019-03-24T01:46:28.549Z,0.40
2019-03-24T01:48:57.674Z,0.40
2019-03-24T01:51:26.803Z,0.40
2019-03-24T01:53:55.939Z,0.40
2019-03-24T01:56:24.985Z,0.40
2019-03-24T01:58:54.023Z,0.30
2019-03-24T02:01:23.142Z,0.40
2019-03-24T02:03:52.255Z,0.40
2019-03-24T02:06:21.600Z,0.27
2019-03-24T02:08:50.636Z,0.30
2019-03-24T02:11:19.669Z,0.30
2019-03-24T02:13:48.691Z,0.33
2019-03-24T02:16:17.806Z,0.40
2019-03-24T02:18:46.850Z,0.40
2019-03-24T02:21:16.006Z,0.30
2019-03-24T02:23:45.732Z,0.40
2019-03-24T02:26:14.747Z,0.50
2019-03-24T02:28:43.909Z,0.40
2019-03-24T02:31:12.934Z,0.50
2019-03-24T02:33:42.108Z,0.30
2019-03-24T02:36:11.228Z,0.40
2019-03-24T02:38:40.727Z,0.40
2019-03-24T02:41:10.034Z,0.50
2019-03-24T02:43:39.591Z,0.33
2019-03-24T02:46:08.732Z,0.30
2019-03-24T02:48:37.872Z,0.37
2019-03-24T02:51:07.282Z,0.43
2019-03-24T02:53:36.362Z,0.30
2019-03-24T02:56:05.498Z,0.30
2019-03-24T02:58:34.551Z,0.40
2019-03-24T03:01:03.606Z,0.40
2019-03-24T03:03:32.660Z,0.30
2019-03-24T03:06:01.793Z,0.33
2019-03-24T03:08:30.928Z,0.30
2019-03-24T03:11:00.025Z,0.30
2019-03-24T03:13:29.451Z,0.47
2019-03-24T03:15:58.579Z,0.40
2019-03-24T03:18:27.658Z,0.40
2019-03-24T03:20:56.787Z,0.37
2019-03-24T03:23:25.911Z,0.40
2019-03-24T03:25:55.215Z,0.30
2019-03-24T03:28:24.326Z,0.30
2019-03-24T03:30:53.461Z,0.47
2019-03-24T03:33:22.577Z,0.30
2019-03-24T03:35:51.606Z,0.40
2019-03-24T03:38:20.736Z,0.20
2019-03-24T03:40:49.802Z,0.20
2019-03-24T03:43:18.946Z,0.20
2019-03-24T03:45:48.009Z,0.20
2019-03-24T03:48:17.387Z,0.60
2019-03-24T03:50:46.527Z,0.30
2019-03-24T03:53:15.888Z,0.30
2019-03-24T03:55:45.114Z,0.30
2019-03-24T03:58:14.567Z,0.30
2019-03-24T04:00:43.776Z,0.20
2019-03-24T04:03:12.824Z,0.27
2019-03-24T04:05:41.856Z,0.40
2019-03-24T04:08:10.895Z,0.47
2019-03-24T04:10:40.205Z,0.30
2019-03-24T04:13:09.489Z,0.30
2019-03-24T04:15:38.718Z,0.20
2019-03-24T04:18:08.077Z,0.30
2019-03-24T04:20:37.213Z,0.40
2019-03-24T04:23:06.333Z,0.30
2019-03-24T04:25:35.461Z,0.20
2019-03-24T04:28:04.594Z,0.40
2019-03-24T04:30:33.654Z,0.20
2019-03-24T04:33:02.795Z,0.30
2019-03-24T04:35:31.831Z,0.30
2019-03-24T04:38:00.882Z,0.30
2019-03-24T04:40:30.024Z,0.20
2019-03-24T04:42:59.352Z,0.40
2019-03-24T04:45:28.466Z,0.30
2019-03-24T04:47:57.528Z,0.20
2019-03-24T04:50:26.639Z,0.40
2019-03-24T04:52:55.769Z,0.30
2019-03-24T04:55:25.111Z,0.20
2019-03-24T04:57:54.253Z,0.20
2019-03-24T05:00:39.045Z,0.20
2019-03-24T05:03:08.178Z,0.20
2019-03-24T05:05:37.986Z,0.30
2019-03-24T05:08:07.114Z,0.40
2019-03-24T05:10:36.242Z,0.20
2019-03-24T05:13:05.357Z,0.30
2019-03-24T05:15:34.495Z,0.40
2019-03-24T05:18:03.566Z,0.30
2019-03-24T05:20:32.756Z,0.27
2019-03-24T05:23:01.903Z,0.30
2019-03-24T05:25:31.561Z,0.50
2019-03-24T05:28:00.662Z,0.30
2019-03-24T05:30:29.716Z,0.20
2019-03-24T05:32:58.862Z,0.13
2019-03-24T05:35:27.920Z,0.30
2019-03-24T05:37:57.109Z,0.30
2019-03-24T05:40:26.130Z,0.30
2019-03-24T05:42:55.686Z,0.30
2019-03-24T05:45:24.731Z,0.37
2019-03-24T05:47:53.843Z,0.10
2019-03-24T05:50:22.959Z,0.30
2019-03-24T05:52:52.127Z,0.40
2019-03-24T05:55:21.719Z,0.30
2019-03-24T05:57:51.107Z,0.37
2019-03-24T06:00:20.222Z,0.30
2019-03-24T06:02:49.267Z,0.30
2019-03-24T06:05:18.645Z,0.40
2019-03-24T06:07:47.992Z,0.20
2019-03-24T06:10:17.048Z,0.30
2019-03-24T06:12:46.097Z,0.30
2019-03-24T06:15:15.314Z,0.20
2019-03-24T06:17:47.994Z,0.20
2019-03-24T06:20:15.278Z,0.23
2019-03-24T06:22:44.318Z,0.20
2019-03-24T06:25:13.428Z,0.20
2019-03-24T06:27:42.510Z,0.30
2019-03-24T06:30:13.284Z,0.30
2019-03-24T06:32:42.426Z,0.30
2019-03-24T06:35:11.582Z,0.20
2019-03-24T06:37:40.679Z,0.30
2019-03-24T06:40:09.810Z,0.30
2019-03-24T06:42:39.128Z,0.20
2019-03-24T06:45:08.264Z,0.30
2019-03-24T06:47:37.406Z,0.23
2019-03-24T06:50:06.688Z,0.30
2019-03-24T06:52:35.811Z,0.20
2019-03-24T06:55:05.153Z,0.30
2019-03-24T06:57:34.268Z,0.20
2019-03-24T07:00:03.326Z,0.30
2019-03-24T07:02:33.035Z,0.30
2019-03-24T07:05:02.146Z,0.27
2019-03-24T07:07:31.279Z,0.40
2019-03-24T07:10:00.431Z,0.20
2019-03-24T07:12:29.687Z,0.20
2019-03-24T07:14:58.799Z,0.30
2019-03-24T07:17:27.924Z,0.20
2019-03-24T07:19:57.024Z,0.40
2019-03-24T07:22:26.175Z,0.30
2019-03-24T07:24:55.309Z,0.30
2019-03-24T07:27:24.517Z,0.40
2019-03-24T07:29:54.171Z,0.23
2019-03-24T07:32:23.230Z,0.20
2019-03-24T07:34:52.343Z,0.30
2019-03-24T07:37:21.382Z,0.27
2019-03-24T07:39:50.502Z,0.27
2019-03-24T07:42:19.545Z,0.50
2019-03-24T07:44:48.590Z,0.20
2019-03-24T07:47:17.715Z,0.30
2019-03-24T07:49:46.872Z,0.27
2019-03-24T07:52:16.555Z,0.20
2019-03-24T07:54:45.663Z,0.20
2019-03-24T07:57:14.779Z,0.23
2019-03-24T07:59:43.886Z,0.20
2019-03-24T08:02:13.368Z,0.10
2019-03-24T08:04:42.403Z,0.40
2019-03-24T08:07:11.449Z,0.30
2019-03-24T08:09:40.507Z,0.30
2019-03-24T08:12:09.561Z,0.33
2019-03-24T08:14:38.654Z,0.30
2019-03-24T08:17:07.781Z,0.40
2019-03-24T08:19:36.827Z,0.33
2019-03-24T08:22:05.946Z,0.40
2019-03-24T08:24:35.041Z,0.97
2019-03-24T08:27:04.169Z,2.90
2019-03-24T08:29:33.225Z,2.90
2019-03-24T08:32:02.359Z,3.07
2019-03-24T08:34:31.401Z,3.20
2019-03-24T08:37:00.512Z,3.17
2019-03-24T08:39:29.640Z,2.07
2019-03-24T08:41:58.718Z,1.60
2019-03-24T08:44:27.808Z,1.30
2019-03-24T08:46:56.932Z,1.57
2019-03-24T08:49:25.994Z,1.20
2019-03-24T08:51:55.107Z,1.20
2019-03-24T08:54:24.229Z,1.27
2019-03-24T08:56:53.541Z,1.47
2019-03-24T08:59:22.681Z,1.10
2019-03-24T09:01:51.802Z,1.10
2019-03-24T09:04:20.863Z,1.70
2019-03-24T09:06:50.004Z,1.80
2019-03-24T09:09:19.146Z,1.90
2019-03-24T09:11:48.300Z,1.57
2019-03-24T09:14:17.327Z,1.20
2019-03-24T09:16:46.479Z,1.80
2019-03-24T09:19:15.837Z,1.60
2019-03-24T09:21:44.962Z,1.67
2019-03-24T09:24:14.077Z,1.37
2019-03-24T09:26:43.126Z,1.37
2019-03-24T09:29:12.229Z,1.20
2019-03-24T09:31:41.442Z,1.70
2019-03-24T09:34:10.617Z,1.83
2019-03-24T09:36:39.741Z,1.50
2019-03-24T09:39:09.108Z,1.60
2019-03-24T09:41:38.331Z,1.37
2019-03-24T09:44:07.488Z,1.10
2019-03-24T09:46:36.591Z,1.70
2019-03-24T09:49:05.707Z,1.13
2019-03-24T09:51:35.169Z,1.30
2019-03-24T09:54:04.246Z,0.73
2019-03-24T09:56:33.291Z,0.80
2019-03-24T09:59:02.315Z,0.50
2019-03-24T10:01:31.390Z,0.60
2019-03-24T10:04:00.444Z,0.70
2019-03-24T10:06:29.496Z,0.70
2019-03-24T10:08:58.543Z,0.77
2019-03-24T10:11:27.677Z,1.73
2019-03-24T10:13:56.795Z,1.00
2019-03-24T10:16:25.845Z,0.90
2019-03-24T10:18:54.969Z,0.73
2019-03-24T10:21:24.104Z,0.70
2019-03-24T10:23:53.983Z,0.50
2019-03-24T10:26:23.097Z,0.67
2019-03-24T10:28:52.146Z,0.87
2019-03-24T10:31:21.195Z,0.70
2019-03-24T10:33:50.238Z,0.87
2019-03-24T10:36:19.306Z,0.60
2019-03-24T10:38:48.618Z,0.87
2019-03-24T10:41:17.663Z,0.87
2019-03-24T10:43:46.707Z,0.70
2019-03-24T10:46:15.824Z,1.10
2019-03-24T10:48:44.937Z,0.90
2019-03-24T10:51:14.455Z,1.20
2019-03-24T10:53:43.599Z,0.90
2019-03-24T10:56:12.650Z,1.07
2019-03-24T10:58:42.069Z,0.80
2019-03-24T11:01:11.391Z,0.90
2019-03-24T11:03:40.774Z,0.70
2019-03-24T11:06:09.799Z,0.83
2019-03-24T11:08:38.955Z,0.90
2019-03-24T11:11:07.974Z,1.03
2019-03-24T11:13:37.085Z,0.80
2019-03-24T11:16:06.584Z,0.63
2019-03-24T11:18:35.709Z,0.63
2019-03-24T11:21:04.888Z,0.90
2019-03-24T11:23:33.931Z,0.93
2019-03-24T11:26:03.075Z,0.90
2019-03-24T11:28:32.204Z,0.90
2019-03-24T11:31:01.262Z,0.77
2019-03-24T11:33:30.388Z,1.30
2019-03-24T11:35:59.743Z,0.70
2019-03-24T11:38:28.859Z,0.93
2019-03-24T11:40:58.009Z,0.70
2019-03-24T11:43:27.072Z,0.70
2019-03-24T11:45:56.201Z,0.67
2019-03-24T11:48:25.319Z,0.80
2019-03-24T11:50:54.398Z,0.63
2019-03-24T11:53:23.510Z,0.90
2019-03-24T11:55:52.652Z,0.60
2019-03-24T11:58:21.707Z,0.60
2019-03-24T12:00:50.833Z,0.90
2019-03-24T12:03:19.918Z,0.57
2019-03-24T12:05:49.066Z,0.63
2019-03-24T12:08:18.116Z,0.70
2019-03-24T12:10:47.278Z,0.80
2019-03-24T12:13:16.409Z,0.67
2019-03-24T12:15:46.350Z,0.87
2019-03-24T12:18:15.471Z,0.93
2019-03-24T12:20:44.606Z,0.73
2019-03-24T12:23:13.787Z,0.80
2019-03-24T12:25:42.927Z,0.90
2019-03-24T12:28:12.023Z,0.80
2019-03-24T12:30:41.370Z,0.60
2019-03-24T12:33:10.535Z,0.83
2019-03-24T12:35:39.969Z,0.70
2019-03-24T12:38:09.079Z,0.80
2019-03-24T12:40:38.583Z,0.70
2019-03-24T12:43:18.620Z,0.50
2019-03-24T12:45:38.536Z,0.50
2019-03-24T12:48:07.609Z,0.70
2019-03-24T12:50:36.962Z,0.50
2019-03-24T12:53:06.007Z,0.47
2019-03-24T12:55:35.158Z,0.50
2019-03-24T12:58:04.575Z,0.40
2019-03-24T13:00:35.294Z,0.80
2019-03-24T13:03:04.547Z,0.47
2019-03-24T13:05:33.621Z,0.40
2019-03-24T13:08:12.546Z,0.50
2019-03-24T13:10:41.727Z,0.70
2019-03-24T13:13:10.878Z,0.60
2019-03-24T13:15:40.023Z,0.50
2019-03-24T13:18:09.136Z,0.70
2019-03-24T13:20:38.892Z,0.50
2019-03-24T13:23:08.067Z,0.77
2019-03-24T13:25:37.180Z,0.63
2019-03-24T13:28:06.340Z,0.40
2019-03-24T13:30:35.447Z,0.50
2019-03-24T13:33:04.818Z,0.60
2019-03-24T13:35:34.082Z,0.47
2019-03-24T13:38:03.148Z,0.67
2019-03-24T13:40:32.645Z,0.33
2019-03-24T13:43:01.704Z,0.37
2019-03-24T13:45:30.855Z,0.60
2019-03-24T13:47:59.917Z,1.10
2019-03-24T13:50:31.705Z,1.00
2019-03-24T13:52:59.929Z,1.40
2019-03-24T13:55:29.413Z,1.13
2019-03-24T13:57:58.455Z,1.23
2019-03-24T14:00:27.827Z,1.03
2019-03-24T14:02:56.960Z,1.10
2019-03-24T14:05:26.078Z,1.03
2019-03-24T14:07:55.647Z,1.03
2019-03-24T14:10:24.773Z,1.37
2019-03-24T14:12:54.014Z,1.20
2019-03-24T14:15:23.143Z,1.07
2019-03-24T14:17:52.259Z,0.83
2019-03-24T14:20:21.370Z,0.70
2019-03-24T14:22:50.486Z,0.60
2019-03-24T14:25:19.641Z,0.60
2019-03-24T14:27:48.767Z,0.83
2019-03-24T14:30:22.442Z,0.40
2019-03-24T14:32:51.563Z,0.50
2019-03-24T14:35:20.692Z,0.53
2019-03-24T14:37:49.834Z,0.50
2019-03-24T14:40:19.282Z,0.50
2019-03-24T14:42:48.427Z,0.60
2019-03-24T14:45:17.488Z,0.60
2019-03-24T14:47:46.621Z,0.33
2019-03-24T14:50:15.691Z,0.60
2019-03-24T14:52:45.587Z,0.50
2019-03-24T14:55:14.711Z,0.40
2019-03-24T14:57:43.894Z,0.30
2019-03-24T15:00:13.021Z,0.50
2019-03-24T15:02:42.165Z,0.50
2019-03-24T15:05:11.216Z,0.40
2019-03-24T15:07:40.586Z,0.50
2019-03-24T15:10:10.342Z,0.67
2019-03-24T15:12:39.510Z,0.70
2019-03-24T15:15:08.753Z,0.60
2019-03-24T15:17:37.829Z,0.50
2019-03-24T15:20:07.154Z,0.43
2019-03-24T15:22:36.215Z,0.50
2019-03-24T15:25:05.582Z,0.50
2019-03-24T15:27:35.028Z,0.50
2019-03-24T15:30:04.396Z,0.57
2019-03-24T15:32:33.534Z,0.50
2019-03-24T15:35:02.567Z,0.50
2019-03-24T15:37:31.695Z,0.40
2019-03-24T15:40:00.823Z,0.50
2019-03-24T15:42:29.971Z,0.60
2019-03-24T15:44:59.134Z,0.40
2019-03-24T15:47:28.259Z,0.30
2019-03-24T15:49:57.391Z,0.67
2019-03-24T15:52:26.769Z,0.67
2019-03-24T15:54:55.907Z,0.40
2019-03-24T15:57:25.046Z,0.60
2019-03-24T15:59:54.179Z,0.30
2019-03-24T16:02:23.221Z,0.47
2019-03-24T16:29:38.140Z,1.67
2019-03-24T16:32:07.191Z,2.63
2019-03-24T16:34:36.245Z,3.13
2019-03-24T16:37:05.539Z,2.40
2019-03-24T16:39:34.851Z,2.60
2019-03-24T16:42:04.458Z,2.00
2019-03-24T16:44:33.785Z,2.70
2019-03-24T16:47:02.836Z,2.00
2019-03-24T16:49:32.250Z,3.37
2019-03-24T16:52:01.300Z,3.23
2019-03-24T16:54:30.852Z,2.87
2019-03-24T16:56:59.985Z,2.90
2019-03-24T16:59:29.047Z,2.93
2019-03-24T17:01:58.198Z,3.53
2019-03-24T17:04:27.275Z,2.73
2019-03-24T17:06:56.334Z,3.00
2019-03-24T17:09:25.396Z,2.63
2019-03-24T17:11:56.989Z,2.10
2019-03-24T17:14:25.591Z,1.70
2019-03-24T17:16:54.640Z,3.10
2019-03-24T17:19:23.714Z,2.70
2019-03-24T17:21:52.767Z,1.97
2019-03-24T17:24:21.810Z,2.40
2019-03-24T17:26:50.917Z,1.87
2019-03-24T17:29:19.927Z,2.80
2019-03-24T17:31:49.013Z,2.57
2019-03-24T17:34:18.835Z,2.20
2019-03-24T17:36:47.992Z,2.70
2019-03-24T17:39:17.010Z,2.07
2019-03-24T17:41:46.115Z,3.00
2019-03-24T17:44:15.207Z,2.17
2019-03-24T17:46:44.236Z,2.50
2019-03-24T17:49:13.569Z,2.77
2019-03-24T17:51:42.595Z,2.50
2019-03-24T17:54:11.658Z,2.33
2019-03-24T17:56:40.703Z,2.43
2019-03-24T17:59:10.087Z,2.10
2019-03-24T18:01:39.104Z,2.87
2019-03-24T18:04:08.189Z,2.93
2019-03-24T18:06:37.252Z,2.70
2019-03-24T18:09:08.262Z,2.60
2019-03-24T18:11:37.302Z,3.77
2019-03-24T18:14:06.417Z,2.63
2019-03-24T18:16:35.477Z,2.47
2019-03-24T18:19:04.517Z,2.80
2019-03-24T18:21:33.600Z,3.07
2019-03-24T18:24:02.642Z,2.40
2019-03-24T18:26:31.688Z,2.47
2019-03-24T18:29:00.751Z,2.00
2019-03-24T18:31:30.065Z,2.87
2019-03-24T18:33:59.108Z,2.73
2019-03-24T18:36:28.161Z,2.13
2019-03-24T18:38:57.240Z,2.70
2019-03-24T18:41:26.382Z,2.30
2019-03-24T18:43:55.435Z,2.40
2019-03-24T18:46:24.491Z,2.17
2019-03-24T18:48:53.637Z,2.83
2019-03-24T18:51:22.949Z,1.80
2019-03-24T18:53:52.021Z,2.37
2019-03-24T18:56:21.313Z,1.80
2019-03-24T18:58:50.450Z,2.20
2019-03-24T19:01:19.512Z,2.47
2019-03-24T19:03:48.562Z,2.27
2019-03-24T19:06:17.609Z,2.03
2019-03-24T19:08:46.639Z,2.27
2019-03-24T19:11:15.686Z,2.40
2019-03-24T19:13:44.757Z,2.17
2019-03-24T19:16:14.054Z,2.10
2019-03-24T19:18:43.098Z,2.63
2019-03-24T19:21:12.900Z,2.60
2019-03-24T19:23:41.980Z,2.23
2019-03-24T19:26:10.986Z,2.10
2019-03-24T19:28:40.097Z,2.43
2019-03-24T19:31:09.154Z,2.13
2019-03-24T19:33:38.187Z,2.37
2019-03-24T19:36:07.295Z,2.50
2019-03-24T19:38:36.371Z,2.60
2019-03-24T19:41:05.881Z,2.57
2019-03-24T19:43:34.977Z,2.97
2019-03-24T19:46:04.050Z,2.00
2019-03-24T19:48:33.097Z,2.07
2019-03-24T19:51:02.462Z,2.53
2019-03-24T19:53:31.518Z,2.30
2019-03-24T19:56:00.553Z,1.70
2019-03-24T19:58:29.615Z,2.07
2019-03-24T20:00:59.153Z,2.07
2019-03-24T20:03:28.200Z,1.90
2019-03-24T20:05:57.251Z,2.07
2019-03-24T20:08:26.609Z,1.63
2019-03-24T20:10:55.971Z,1.70
2019-03-24T20:13:25.111Z,1.87
2019-03-24T20:15:54.164Z,1.83
2019-03-24T20:18:23.237Z,1.63
2019-03-24T20:20:52.355Z,1.60
2019-03-24T20:23:21.411Z,1.83
2019-03-24T20:25:50.468Z,1.73
2019-03-24T20:28:19.481Z,1.73
2019-03-24T20:30:48.556Z,2.10
2019-03-24T20:33:17.617Z,1.43
2019-03-24T20:35:46.647Z,2.00
2019-03-24T20:38:15.673Z,1.40
2019-03-24T20:40:44.738Z,1.67
2019-03-24T20:43:13.819Z,1.97
2019-03-24T20:45:42.873Z,1.87
2019-03-24T20:48:11.959Z,1.83
2019-03-24T20:50:41.070Z,1.93
2019-03-24T20:53:17.962Z,2.07
2019-03-24T20:55:41.163Z,2.17
2019-03-24T20:58:10.201Z,1.70
2019-03-24T21:00:39.314Z,1.80
2019-03-24T21:03:08.663Z,1.60
2019-03-24T21:05:38.006Z,3.10
2019-03-24T21:08:07.421Z,2.10
2019-03-24T21:10:36.684Z,1.83
2019-03-24T21:13:05.913Z,1.67
2019-03-24T21:15:35.273Z,1.83
2019-03-24T21:18:04.362Z,2.20
2019-03-24T21:20:33.388Z,2.13
2019-03-24T21:23:02.450Z,2.17
2019-03-24T21:25:31.519Z,2.37
2019-03-24T21:28:00.576Z,2.60
2019-03-24T21:30:34.104Z,2.13
2019-03-24T21:33:03.153Z,1.90
2019-03-24T21:35:32.198Z,2.27
2019-03-24T21:38:01.356Z,2.50
2019-03-24T21:40:30.476Z,2.60
2019-03-24T21:42:59.549Z,2.20
2019-03-24T21:45:28.687Z,2.73
2019-03-24T21:47:57.756Z,2.47
2019-03-24T21:50:26.826Z,1.90
2019-03-24T21:52:55.870Z,3.17
2019-03-24T21:55:24.988Z,2.10
2019-03-24T21:57:57.747Z,2.17
2019-03-24T22:00:35.724Z,2.33
2019-03-24T22:03:05.016Z,2.97
2019-03-24T22:05:34.213Z,2.70
2019-03-24T22:08:03.262Z,2.10
2019-03-24T22:10:32.418Z,3.07
2019-03-24T22:13:01.499Z,2.70
2019-03-24T22:15:30.922Z,2.53
2019-03-24T22:17:59.953Z,2.77
2019-03-24T22:20:29.019Z,2.17
2019-03-24T22:22:58.044Z,2.30
2019-03-24T22:25:27.107Z,2.20
2019-03-24T22:27:56.197Z,2.73
2019-03-24T22:30:25.252Z,3.00
2019-03-24T22:32:54.321Z,2.73
2019-03-24T22:35:23.421Z,2.83
2019-03-24T22:37:52.700Z,2.57
2019-03-24T22:40:21.758Z,2.13
2019-03-24T22:42:50.822Z,2.50
2019-03-24T22:45:19.879Z,2.43
2019-03-24T22:47:48.908Z,2.03
2019-03-24T22:50:17.940Z,2.17
2019-03-24T22:52:46.972Z,2.60
2019-03-24T22:55:16.110Z,2.53
2019-03-24T22:57:45.385Z,2.30
2019-03-24T23:00:20.918Z,3.13
2019-03-24T23:02:50.056Z,2.50
2019-03-24T23:05:19.087Z,2.83
2019-03-24T23:07:48.240Z,2.80
2019-03-24T23:10:17.279Z,2.43
2019-03-24T23:12:46.599Z,2.77
2019-03-24T23:15:15.675Z,2.10
2019-03-24T23:17:44.731Z,2.73
2019-03-24T23:20:13.783Z,3.53
2019-03-24T23:22:42.841Z,2.47
2019-03-24T23:25:11.931Z,2.23
2019-03-24T23:27:41.005Z,3.50
2019-03-24T23:30:10.206Z,2.73
2019-03-24T23:32:39.643Z,2.53
2019-03-24T23:35:08.700Z,3.20
2019-03-24T23:37:37.725Z,2.77
2019-03-24T23:40:06.889Z,3.00
2019-03-24T23:42:35.990Z,3.80
2019-03-24T23:45:05.795Z,2.33
2019-03-24T23:47:34.847Z,2.93
2019-03-24T23:50:04.123Z,3.00
2019-03-24T23:52:33.167Z,2.40
2019-03-24T23:55:02.217Z,2.43
2019-03-24T23:57:31.261Z,2.60
